Time;durP1;ratioP1;P1;durP2;ratioP2;P2;SDS_P1;SDS_P2;PMS_P1;PMS_P2;Temp;Humidity;BMP_temperature;BMP_pressure;BME280_temperature;BME280_humidity;BME280_pressure;Samples;Min_cycle;Max_cycle;Signal;HPM_P1;HPM_P2
2022/04/08 00:00:16;;;;;;;7.93;1.60;;;9.70;92.70;;;;;;5013390;28;20017;-69
2022/04/08 00:02:43;;;;;;;3.08;1.30;;;9.80;92.70;;;;;;5012962;28;20065;-69
2022/04/08 00:05:09;;;;;;;3.65;1.40;;;9.80;92.60;;;;;;5015490;28;20045;-68
2022/04/08 00:07:35;;;;;;;5.70;1.50;;;9.80;92.60;;;;;;5013487;28;20362;-67
2022/04/08 00:10:01;;;;;;;3.88;1.58;;;9.80;92.60;;;;;;5012787;28;20025;-68
2022/04/08 00:12:26;;;;;;;3.78;1.30;;;9.80;92.60;;;;;;5013445;28;20105;-68
2022/04/08 00:14:52;;;;;;;4.28;1.42;;;9.80;92.70;;;;;;5013502;28;20117;-68
2022/04/08 00:17:17;;;;;;;4.60;1.50;;;9.80;92.80;;;;;;5016762;28;20404;-69
2022/04/08 00:19:43;;;;;;;3.28;1.30;;;9.80;92.90;;;;;;5029972;28;20043;-69
2022/04/08 00:22:08;;;;;;;5.70;1.90;;;9.80;93.00;;;;;;5029356;28;20485;-69
2022/04/08 00:24:34;;;;;;;2.58;1.33;;;9.80;93.10;;;;;;5018266;28;20136;-68
2022/04/08 00:26:59;;;;;;;6.55;1.65;;;9.80;93.10;;;;;;5012204;28;20037;-69
2022/04/08 00:29:24;;;;;;;4.05;1.83;;;9.80;93.00;;;;;;5017256;28;20032;-69
2022/04/08 00:31:57;;;;;;;7.95;1.55;;;9.80;93.00;;;;;;5012802;28;20034;-69
2022/04/08 00:34:26;;;;;;;4.30;1.70;;;9.80;93.00;;;;;;5013591;28;20548;-68
2022/04/08 00:36:54;;;;;;;5.00;2.53;;;9.80;93.10;;;;;;5026066;28;20034;-69
2022/04/08 00:39:23;;;;;;;3.38;1.52;;;9.70;93.10;;;;;;5020114;28;20025;-68
2022/04/08 00:41:48;;;;;;;3.13;1.65;;;9.70;93.20;;;;;;5011145;28;20102;-68
2022/04/08 00:44:14;;;;;;;4.03;1.77;;;9.70;93.20;;;;;;5011927;28;20127;-68
2022/04/08 00:46:40;;;;;;;4.25;1.98;;;9.70;93.30;;;;;;5012825;28;20018;-68
2022/04/08 00:49:06;;;;;;;2.85;1.70;;;9.60;93.30;;;;;;5012870;28;20048;-69
2022/04/08 00:51:34;;;;;;;2.97;1.55;;;9.60;93.30;;;;;;5011858;28;20072;-69
2022/04/08 00:54:00;;;;;;;3.85;1.67;;;9.60;93.30;;;;;;5035896;28;20481;-69
2022/04/08 00:56:30;;;;;;;5.90;2.10;;;9.60;93.30;;;;;;5012478;28;20122;-68
2022/04/08 00:58:56;;;;;;;2.15;1.20;;;9.60;93.10;;;;;;5023412;28;20071;-68
2022/04/08 01:01:23;;;;;;;2.05;1.30;;;9.60;93.10;;;;;;5014705;28;20100;-68
2022/04/08 01:03:52;;;;;;;3.72;1.30;;;9.60;93.10;;;;;;5017605;28;20077;-68
2022/04/08 01:06:21;;;;;;;2.95;1.08;;;9.50;93.00;;;;;;5016314;28;20037;-69
2022/04/08 01:08:49;;;;;;;2.08;1.38;;;9.60;93.00;;;;;;5010514;28;20041;-68
2022/04/08 01:11:15;;;;;;;2.42;1.40;;;9.50;93.00;;;;;;5015739;28;20026;-69
2022/04/08 01:13:40;;;;;;;1.85;1.10;;;9.50;92.90;;;;;;5028334;28;20048;-69
2022/04/08 01:16:07;;;;;;;2.08;1.20;;;9.50;92.90;;;;;;5032208;28;20029;-69
2022/04/08 01:18:32;;;;;;;3.97;1.40;;;9.50;92.90;;;;;;5017431;28;20037;-68
2022/04/08 01:20:58;;;;;;;2.75;1.08;;;9.50;92.90;;;;;;5025166;28;20033;-67
2022/04/08 01:23:23;;;;;;;1.88;1.05;;;9.50;92.80;;;;;;5020383;28;20037;-68
2022/04/08 01:25:49;;;;;;;1.70;1.13;;;9.50;92.70;;;;;;5011020;28;20030;-68
2022/04/08 01:28:14;;;;;;;3.15;1.40;;;9.50;92.70;;;;;;5017725;28;20030;-70
2022/04/08 01:30:40;;;;;;;3.10;0.90;;;9.50;92.60;;;;;;5015561;28;20113;-69
2022/04/08 01:33:06;;;;;;;2.33;1.02;;;9.50;92.60;;;;;;5011488;28;20029;-69
2022/04/08 01:35:31;;;;;;;7.43;2.38;;;9.40;92.60;;;;;;5025670;28;20021;-69
2022/04/08 01:37:57;;;;;;;1.88;0.85;;;9.40;92.60;;;;;;5024566;28;20037;-69
2022/04/08 01:40:22;;;;;;;2.33;1.00;;;9.40;92.60;;;;;;5019523;28;20034;-69
2022/04/08 01:42:48;;;;;;;4.53;2.10;;;9.50;92.70;;;;;;5018496;28;20380;-69
2022/04/08 01:45:14;;;;;;;3.13;1.10;;;9.50;92.70;;;;;;5021954;28;20037;-69
2022/04/08 01:47:39;;;;;;;1.83;1.00;;;9.50;92.60;;;;;;5019487;28;20117;-69
2022/04/08 01:50:07;;;;;;;2.60;1.17;;;9.40;92.60;;;;;;5010718;28;20437;-69
2022/04/08 01:52:32;;;;;;;2.08;1.10;;;9.40;92.70;;;;;;5011204;28;20055;-68
2022/04/08 01:54:58;;;;;;;2.65;1.10;;;9.40;92.70;;;;;;5019989;28;20080;-69
2022/04/08 01:57:23;;;;;;;3.25;1.17;;;9.40;92.70;;;;;;5021464;28;20036;-69
2022/04/08 01:59:52;;;;;;;2.55;0.95;;;9.40;92.60;;;;;;5020074;28;20420;-69
2022/04/08 02:02:20;;;;;;;3.28;1.40;;;9.50;92.60;;;;;;5009699;28;20112;-69
2022/04/08 02:04:46;;;;;;;2.20;0.98;;;9.40;92.60;;;;;;5017907;28;20078;-70
2022/04/08 02:07:11;;;;;;;2.10;1.00;;;9.50;92.60;;;;;;5023241;28;20109;-68
2022/04/08 02:09:40;;;;;;;2.28;0.95;;;9.40;92.60;;;;;;5023747;28;20159;-68
2022/04/08 02:12:06;;;;;;;1.90;1.20;;;9.40;92.60;;;;;;5010509;28;20109;-68
2022/04/08 02:14:31;;;;;;;3.13;1.17;;;9.40;92.50;;;;;;5022338;28;20041;-69
2022/04/08 02:16:57;;;;;;;3.65;1.00;;;9.40;92.50;;;;;;5014525;28;20053;-68
2022/04/08 02:19:22;;;;;;;3.58;1.02;;;9.50;92.50;;;;;;5021036;28;20461;-68
2022/04/08 02:21:48;;;;;;;2.05;1.13;;;9.50;92.50;;;;;;5028933;28;20034;-69
2022/04/08 02:24:14;;;;;;;2.22;1.25;;;9.50;92.50;;;;;;5015965;28;20080;-69
2022/04/08 02:26:40;;;;;;;6.25;1.20;;;9.40;92.40;;;;;;5012130;28;20033;-69
2022/04/08 02:29:05;;;;;;;1.25;1.10;;;9.50;92.40;;;;;;5029030;28;20072;-69
2022/04/08 02:31:34;;;;;;;2.20;1.08;;;9.50;92.40;;;;;;5011370;28;20052;-69
2022/04/08 02:33:59;;;;;;;5.80;1.50;;;9.50;92.30;;;;;;5011144;28;20401;-69
2022/04/08 02:36:24;;;;;;;1.80;0.90;;;9.50;92.20;;;;;;5030831;28;20021;-69
2022/04/08 02:38:50;;;;;;;2.83;1.20;;;9.50;92.10;;;;;;5009178;28;20037;-69
2022/04/08 02:41:15;;;;;;;4.22;1.50;;;9.50;91.90;;;;;;5011072;28;20022;-69
2022/04/08 02:43:41;;;;;;;4.63;1.25;;;9.40;91.90;;;;;;5011309;28;20045;-69
2022/04/08 02:46:06;;;;;;;2.13;1.27;;;9.40;91.90;;;;;;5028022;28;20045;-69
2022/04/08 02:48:32;;;;;;;3.17;1.15;;;9.50;91.90;;;;;;5020600;28;20032;-69
2022/04/08 02:50:57;;;;;;;3.63;1.15;;;9.50;91.80;;;;;;5029345;28;20116;-69
2022/04/08 02:53:23;;;;;;;3.22;1.20;;;9.50;91.80;;;;;;5010351;28;20026;-69
2022/04/08 02:55:48;;;;;;;3.03;1.08;;;9.50;91.90;;;;;;5011107;28;20131;-69
2022/04/08 02:58:14;;;;;;;3.15;1.08;;;9.50;91.70;;;;;;5010585;28;20540;-69
2022/04/08 03:00:40;;;;;;;2.63;1.10;;;9.50;91.70;;;;;;5010875;28;20172;-69
2022/04/08 03:03:06;;;;;;;1.30;0.90;;;9.50;91.60;;;;;;5010111;28;20312;-69
2022/04/08 03:05:31;;;;;;;4.20;1.02;;;9.50;91.60;;;;;;5010523;28;20670;-68
2022/04/08 03:07:57;;;;;;;1.75;1.00;;;9.60;91.60;;;;;;5010230;28;20033;-69
2022/04/08 03:10:22;;;;;;;4.25;1.15;;;9.50;91.50;;;;;;5010709;28;20057;-69
2022/04/08 03:12:48;;;;;;;3.95;1.40;;;9.50;91.60;;;;;;5016607;28;20022;-69
2022/04/08 03:15:13;;;;;;;3.55;1.55;;;9.60;91.60;;;;;;5012243;28;20363;-68
2022/04/08 03:17:39;;;;;;;3.70;1.02;;;9.60;91.60;;;;;;5026341;28;20120;-68
2022/04/08 03:20:06;;;;;;;4.97;1.10;;;9.50;91.60;;;;;;5016560;28;20508;-69
2022/04/08 03:22:31;;;;;;;5.15;1.60;;;9.60;91.60;;;;;;5016739;28;20391;-69
2022/04/08 03:24:57;;;;;;;3.70;1.08;;;9.60;91.50;;;;;;5018675;28;20052;-69
2022/04/08 03:27:22;;;;;;;3.58;1.40;;;9.60;91.50;;;;;;5010693;28;20026;-69
2022/04/08 03:29:51;;;;;;;3.72;1.20;;;9.60;91.50;;;;;;5013974;28;20052;-70
2022/04/08 03:32:16;;;;;;;1.90;1.25;;;9.60;91.50;;;;;;5013880;28;20053;-68
2022/04/08 03:34:42;;;;;;;2.50;1.17;;;9.60;91.50;;;;;;5013201;28;20061;-68
2022/04/08 03:37:07;;;;;;;3.75;1.00;;;9.60;91.50;;;;;;5016790;28;20041;-68
2022/04/08 03:39:33;;;;;;;2.05;1.20;;;9.60;91.40;;;;;;5034017;28;20029;-67
2022/04/08 03:41:59;;;;;;;3.05;1.15;;;9.60;91.50;;;;;;5029423;28;20428;-67
2022/04/08 03:44:25;;;;;;;4.75;1.00;;;9.60;91.70;;;;;;4996372;28;20385;-68
2022/04/08 03:46:50;;;;;;;3.50;1.20;;;9.60;91.60;;;;;;5013636;28;20033;-68
2022/04/08 03:49:16;;;;;;;2.72;1.30;;;9.60;91.70;;;;;;5013276;28;20022;-68
2022/04/08 03:51:46;;;;;;;2.45;1.30;;;9.60;91.80;;;;;;5014425;28;20061;-68
2022/04/08 03:54:12;;;;;;;2.25;1.15;;;9.60;91.80;;;;;;5013725;28;20022;-68
2022/04/08 03:56:41;;;;;;;2.15;1.08;;;9.70;91.90;;;;;;5013366;28;20375;-68
2022/04/08 03:59:07;;;;;;;2.97;1.20;;;9.70;92.00;;;;;;5013753;28;20037;-68
2022/04/08 04:01:33;;;;;;;1.40;1.10;;;9.60;92.00;;;;;;5012067;28;20397;-68
2022/04/08 04:03:58;;;;;;;2.80;1.25;;;9.60;92.10;;;;;;5013629;28;20137;-68
2022/04/08 04:06:23;;;;;;;1.58;0.70;;;9.60;92.20;;;;;;5013339;28;20077;-68
2022/04/08 04:08:49;;;;;;;2.28;1.00;;;9.60;92.20;;;;;;5012591;28;20033;-68
2022/04/08 04:11:16;;;;;;;2.88;1.23;;;9.50;92.20;;;;;;5013482;28;20342;-69
2022/04/08 04:13:45;;;;;;;2.15;1.00;;;9.50;92.30;;;;;;5012136;28;20120;-69
2022/04/08 04:16:11;;;;;;;1.70;0.85;;;9.50;92.40;;;;;;5021640;28;20052;-69
2022/04/08 04:18:36;;;;;;;3.08;0.90;;;9.50;92.40;;;;;;5025623;28;20477;-68
2022/04/08 04:21:03;;;;;;;3.00;0.82;;;9.50;92.40;;;;;;5012922;28;20037;-69
2022/04/08 04:23:28;;;;;;;0.77;0.70;;;9.40;92.30;;;;;;5012398;28;20022;-69
2022/04/08 04:25:54;;;;;;;2.10;1.00;;;9.40;92.30;;;;;;5012890;28;20026;-68
2022/04/08 04:28:19;;;;;;;1.10;0.75;;;9.30;92.20;;;;;;5022297;28;20117;-69
2022/04/08 04:30:45;;;;;;;1.27;0.90;;;9.30;92.30;;;;;;5012991;28;20033;-68
2022/04/08 04:33:11;;;;;;;1.67;1.10;;;9.20;92.30;;;;;;5024599;28;20022;-69
2022/04/08 04:35:37;;;;;;;1.17;0.90;;;9.20;92.30;;;;;;5028024;28;20564;-69
2022/04/08 04:38:03;;;;;;;1.40;0.98;;;9.10;92.20;;;;;;5023646;28;20043;-69
2022/04/08 04:40:29;;;;;;;1.85;0.90;;;9.10;91.80;;;;;;5029590;28;20553;-69
2022/04/08 04:42:55;;;;;;;1.85;0.80;;;9.00;91.30;;;;;;5015238;28;20423;-69
2022/04/08 04:45:21;;;;;;;2.10;1.20;;;8.90;91.40;;;;;;5012398;28;20125;-69
2022/04/08 04:47:47;;;;;;;2.50;1.20;;;8.90;91.30;;;;;;5015841;28;20104;-66
2022/04/08 04:50:12;;;;;;;2.33;1.10;;;8.90;91.10;;;;;;5012721;28;20561;-67
2022/04/08 04:52:38;;;;;;;3.35;1.20;;;8.80;91.20;;;;;;5013970;28;20026;-68
2022/04/08 04:55:05;;;;;;;3.15;1.20;;;8.80;91.10;;;;;;5012538;28;20030;-69
2022/04/08 04:57:30;;;;;;;2.00;0.98;;;8.70;91.00;;;;;;5011885;28;20556;-67
2022/04/08 04:59:56;;;;;;;4.45;1.92;;;8.70;90.90;;;;;;5023296;28;20033;-67
2022/04/08 05:02:21;;;;;;;4.38;1.00;;;8.60;91.10;;;;;;5018638;28;20021;-67
2022/04/08 05:04:47;;;;;;;1.77;1.30;;;8.60;91.30;;;;;;5009789;28;20157;-67
2022/04/08 05:07:13;;;;;;;4.53;1.55;;;8.60;91.50;;;;;;5011925;28;20088;-66
2022/04/08 05:09:39;;;;;;;2.33;1.08;;;8.50;91.50;;;;;;5012672;28;20417;-67
2022/04/08 05:12:06;;;;;;;3.08;1.15;;;8.50;91.50;;;;;;5011400;28;20022;-67
2022/04/08 05:14:31;;;;;;;2.42;1.27;;;8.50;91.60;;;;;;5022455;28;20025;-67
2022/04/08 05:16:58;;;;;;;3.30;1.77;;;8.50;91.70;;;;;;5034939;28;20456;-67
2022/04/08 05:19:24;;;;;;;5.20;1.23;;;8.50;91.80;;;;;;5027068;28;20056;-67
2022/04/08 05:21:49;;;;;;;4.72;1.30;;;8.60;91.90;;;;;;5010548;28;20474;-67
2022/04/08 05:24:15;;;;;;;2.60;1.02;;;8.60;92.00;;;;;;5011860;28;20041;-67
2022/04/08 05:26:40;;;;;;;2.08;1.08;;;8.60;92.00;;;;;;5010098;28;20026;-67
2022/04/08 05:29:06;;;;;;;3.50;1.30;;;8.60;92.00;;;;;;5011519;28;20030;-67
2022/04/08 05:31:31;;;;;;;3.22;1.48;;;8.70;92.10;;;;;;5021420;28;20443;-67
2022/04/08 05:33:57;;;;;;;4.00;1.80;;;8.70;92.10;;;;;;5011265;28;20390;-67
2022/04/08 05:36:22;;;;;;;4.65;1.38;;;8.70;92.20;;;;;;5012051;28;20534;-67
2022/04/08 05:38:48;;;;;;;4.97;1.35;;;8.80;92.30;;;;;;5011230;28;20056;-67
2022/04/08 05:41:14;;;;;;;3.05;1.20;;;8.90;92.30;;;;;;5011840;28;20474;-67
2022/04/08 05:43:44;;;;;;;2.63;1.35;;;8.90;92.30;;;;;;5011446;28;20037;-67
2022/04/08 05:46:10;;;;;;;3.92;1.30;;;8.90;92.50;;;;;;5011169;28;20113;-69
2022/04/08 05:48:35;;;;;;;4.15;1.30;;;8.90;92.30;;;;;;5009898;28;20129;-68
2022/04/08 05:51:01;;;;;;;2.42;1.08;;;9.00;92.40;;;;;;5011318;28;20113;-68
2022/04/08 05:53:26;;;;;;;2.78;1.38;;;9.00;92.40;;;;;;5025430;28;20076;-70
2022/04/08 05:55:55;;;;;;;2.70;1.10;;;9.00;92.50;;;;;;5014887;28;20026;-68
2022/04/08 05:58:21;;;;;;;1.75;1.08;;;9.00;92.50;;;;;;5010446;28;20109;-69
2022/04/08 06:00:47;;;;;;;4.07;1.30;;;9.00;92.50;;;;;;5011042;28;20060;-69
2022/04/08 06:03:13;;;;;;;4.45;2.58;;;9.00;92.50;;;;;;5014537;28;20091;-69
2022/04/08 06:05:38;;;;;;;1.60;1.00;;;8.90;92.60;;;;;;5017091;28;20034;-69
2022/04/08 06:08:04;;;;;;;2.72;1.08;;;9.00;92.70;;;;;;5015998;28;20032;-69
2022/04/08 06:10:30;;;;;;;2.97;1.40;;;9.00;92.70;;;;;;5011698;28;20060;-70
2022/04/08 06:12:56;;;;;;;4.10;1.52;;;9.00;92.70;;;;;;5009805;28;20026;-69
2022/04/08 06:15:21;;;;;;;2.58;1.20;;;9.00;92.80;;;;;;5016666;28;20502;-68
2022/04/08 06:17:47;;;;;;;2.10;1.02;;;9.00;92.80;;;;;;5013430;28;20080;-69
2022/04/08 06:20:16;;;;;;;3.17;1.40;;;9.10;92.70;;;;;;5011343;28;20109;-69
2022/04/08 06:22:41;;;;;;;3.05;1.00;;;9.10;92.80;;;;;;5012250;28;20477;-68
2022/04/08 06:25:11;;;;;;;4.15;1.17;;;9.10;92.70;;;;;;5021419;28;20044;-69
2022/04/08 06:27:37;;;;;;;1.98;1.10;;;9.10;92.80;;;;;;5010536;28;20030;-69
2022/04/08 06:30:07;;;;;;;1.60;1.08;;;9.10;92.80;;;;;;5010833;28;20477;-68
2022/04/08 06:32:33;;;;;;;2.70;1.27;;;9.20;92.80;;;;;;5011267;28;20250;-68
2022/04/08 06:34:58;;;;;;;2.50;1.10;;;9.20;92.80;;;;;;5018675;28;20380;-69
2022/04/08 06:37:28;;;;;;;3.10;1.02;;;9.20;92.80;;;;;;5020802;28;20135;-68
2022/04/08 06:39:54;;;;;;;1.67;1.25;;;9.20;92.80;;;;;;5021565;28;20041;-67
2022/04/08 06:42:19;;;;;;;3.80;1.30;;;9.30;92.90;;;;;;5010477;28;20433;-67
2022/04/08 06:44:44;;;;;;;2.45;1.30;;;9.40;92.90;;;;;;5030549;28;20141;-67
2022/04/08 06:47:10;;;;;;;1.58;1.00;;;9.50;92.90;;;;;;5024782;28;20477;-68
2022/04/08 06:49:35;;;;;;;1.67;1.25;;;9.60;92.70;;;;;;5029928;28;20163;-67
2022/04/08 06:52:01;;;;;;;2.53;1.05;;;9.70;92.60;;;;;;5017368;28;20370;-66
2022/04/08 06:54:28;;;;;;;2.70;1.30;;;9.40;91.90;;;;;;5013174;28;20457;-67
2022/04/08 06:56:54;;;;;;;3.35;1.35;;;9.10;91.90;;;;;;5014283;28;20485;-67
2022/04/08 06:59:19;;;;;;;2.95;1.15;;;8.80;92.00;;;;;;5008639;28;20045;-67
2022/04/08 07:01:45;;;;;;;2.58;1.17;;;8.60;92.60;;;;;;5019552;28;20026;-67
2022/04/08 07:04:10;;;;;;;4.10;1.75;;;8.50;92.60;;;;;;5032772;28;20049;-67
2022/04/08 07:06:36;;;;;;;3.53;1.38;;;8.30;92.30;;;;;;5021952;28;20504;-67
2022/04/08 07:09:01;;;;;;;3.00;1.23;;;8.10;92.90;;;;;;5024454;28;20010;-67
2022/04/08 07:11:27;;;;;;;3.08;1.30;;;7.90;93.20;;;;;;5012843;28;20531;-66
2022/04/08 07:13:52;;;;;;;3.95;1.50;;;7.90;93.40;;;;;;5014558;28;20397;-66
2022/04/08 07:16:18;;;;;;;1.55;1.10;;;7.60;93.40;;;;;;5019287;28;20113;-67
2022/04/08 07:18:43;;;;;;;2.85;1.30;;;7.50;93.80;;;;;;5011616;28;20033;-67
2022/04/08 07:21:09;;;;;;;3.20;1.60;;;7.40;93.80;;;;;;5024590;28;20122;-67
2022/04/08 07:23:36;;;;;;;3.70;1.50;;;7.40;93.80;;;;;;5025921;28;20497;-67
2022/04/08 07:26:02;;;;;;;2.47;1.40;;;7.50;93.90;;;;;;5013636;28;20030;-67
2022/04/08 07:28:28;;;;;;;3.72;1.20;;;7.50;93.90;;;;;;5012738;28;20030;-66
2022/04/08 07:30:53;;;;;;;3.55;1.80;;;7.50;94.00;;;;;;5014227;28;20107;-67
2022/04/08 07:33:19;;;;;;;4.18;1.52;;;7.60;94.00;;;;;;5017489;28;20480;-68
2022/04/08 07:35:44;;;;;;;3.42;1.63;;;7.70;94.00;;;;;;5028529;28;20496;-67
2022/04/08 07:38:10;;;;;;;3.90;1.55;;;7.80;94.10;;;;;;5012538;28;20045;-67
2022/04/08 07:40:35;;;;;;;9.70;1.55;;;8.00;94.10;;;;;;5013626;28;20422;-67
2022/04/08 07:43:01;;;;;;;5.30;1.52;;;8.10;94.10;;;;;;5022403;28;20508;-67
2022/04/08 07:45:30;;;;;;;3.85;1.45;;;8.30;94.00;;;;;;5016122;28;20080;-67
2022/04/08 07:47:58;;;;;;;4.65;1.08;;;8.40;93.90;;;;;;5021340;28;20029;-67
2022/04/08 07:50:26;;;;;;;4.63;1.58;;;8.60;93.70;;;;;;5015959;28;20432;-67
2022/04/08 07:52:51;;;;;;;4.80;1.60;;;8.60;93.60;;;;;;5012444;28;20141;-67
2022/04/08 07:55:20;;;;;;;6.65;1.45;;;8.70;93.40;;;;;;5030644;28;20473;-67
2022/04/08 07:57:47;;;;;;;2.85;1.20;;;8.70;93.40;;;;;;5021549;28;20057;-67
2022/04/08 08:00:14;;;;;;;4.32;1.67;;;8.70;93.30;;;;;;5022850;28;20032;-67
2022/04/08 08:02:41;;;;;;;6.28;2.78;;;8.70;93.30;;;;;;5012093;28;20046;-68
2022/04/08 08:05:07;;;;;;;4.40;1.98;;;8.70;93.30;;;;;;5019533;28;20033;-67
2022/04/08 08:07:43;;;;;;;3.35;1.50;;;8.70;93.40;;;;;;5012877;28;20041;-68
2022/04/08 08:10:09;;;;;;;9.25;2.38;;;8.70;93.60;;;;;;5015845;28;20141;-68
2022/04/08 08:12:34;;;;;;;4.50;1.77;;;8.70;93.60;;;;;;5023631;28;20116;-68
2022/04/08 08:15:00;;;;;;;5.80;1.45;;;8.70;93.50;;;;;;5031736;28;20416;-67
2022/04/08 08:17:26;;;;;;;5.47;1.80;;;8.70;93.50;;;;;;5013199;28;20022;-67
2022/04/08 08:19:51;;;;;;;4.07;1.90;;;8.70;93.40;;;;;;5028257;28;20060;-66
2022/04/08 08:22:16;;;;;;;5.30;1.50;;;8.70;93.40;;;;;;5011286;28;20080;-66
2022/04/08 08:24:42;;;;;;;6.60;2.33;;;8.70;93.20;;;;;;5014942;28;20042;-67
2022/04/08 08:27:07;;;;;;;7.60;2.17;;;8.70;93.20;;;;;;5016190;28;20022;-68
2022/04/08 08:29:33;;;;;;;7.82;1.98;;;8.80;93.20;;;;;;5021757;28;20075;-67
2022/04/08 08:31:58;;;;;;;7.38;1.75;;;8.80;93.10;;;;;;5025187;28;20033;-66
2022/04/08 08:34:24;;;;;;;10.38;2.38;;;8.90;92.70;;;;;;5014159;28;20063;-66
2022/04/08 08:36:51;;;;;;;6.85;2.17;;;9.00;92.80;;;;;;5011692;28;20048;-67
2022/04/08 08:39:16;;;;;;;8.02;2.30;;;9.00;92.20;;;;;;5013681;28;20105;-66
2022/04/08 08:41:43;;;;;;;6.68;2.53;;;9.10;91.90;;;;;;5011275;28;20106;-65
2022/04/08 08:44:08;;;;;;;3.53;1.67;;;9.20;91.60;;;;;;5011014;28;20037;-66
2022/04/08 08:46:35;;;;;;;7.82;1.70;;;9.30;91.30;;;;;;5019211;28;20033;-66
2022/04/08 08:49:02;;;;;;;5.50;1.90;;;9.40;91.50;;;;;;5019032;28;20362;-65
2022/04/08 08:51:34;;;;;;;10.52;1.98;;;9.50;90.90;;;;;;5020988;28;20385;-66
2022/04/08 08:54:00;;;;;;;10.82;2.47;;;9.60;91.30;;;;;;5017774;28;20036;-66
2022/04/08 08:56:25;;;;;;;5.82;2.20;;;9.80;91.10;;;;;;5016747;28;20034;-65
2022/04/08 08:58:51;;;;;;;9.07;1.95;;;9.90;90.90;;;;;;5009857;28;20025;-66
2022/04/08 09:01:16;;;;;;;15.07;3.35;;;10.10;90.60;;;;;;5014787;28;20040;-66
2022/04/08 09:03:44;;;;;;;6.32;1.50;;;10.20;90.40;;;;;;5011972;28;20053;-66
2022/04/08 09:06:10;;;;;;;9.52;2.15;;;10.20;88.60;;;;;;5012264;28;20068;-66
2022/04/08 09:08:38;;;;;;;5.18;1.70;;;10.30;88.10;;;;;;5026034;28;20057;-66
2022/04/08 09:11:04;;;;;;;4.63;1.75;;;10.30;88.40;;;;;;5031890;28;20048;-66
2022/04/08 09:13:29;;;;;;;7.55;1.65;;;10.30;86.60;;;;;;5014495;28;20101;-66
2022/04/08 09:15:57;;;;;;;7.05;2.58;;;10.30;86.60;;;;;;5012219;28;20022;-66
2022/04/08 09:18:23;;;;;;;4.43;1.50;;;10.40;86.70;;;;;;5011979;28;20482;-66
2022/04/08 09:20:50;;;;;;;7.80;1.50;;;10.50;86.80;;;;;;5011572;28;20033;-66
2022/04/08 09:23:20;;;;;;;6.82;1.70;;;10.50;85.70;;;;;;5011746;28;20065;-66
2022/04/08 09:25:48;;;;;;;8.93;2.22;;;10.60;85.80;;;;;;5011146;28;20107;-66
2022/04/08 09:28:18;;;;;;;9.35;1.58;;;10.60;85.60;;;;;;5011661;28;20034;-66
2022/04/08 09:30:55;;;;;;;6.97;1.33;;;10.70;85.90;;;;;;5011410;28;20107;-66
2022/04/08 09:33:23;;;;;;;5.97;1.85;;;10.80;85.20;;;;;;5011732;28;20482;-66
2022/04/08 09:35:52;;;;;;;6.57;1.83;;;10.80;84.80;;;;;;5011861;28;20431;-66
2022/04/08 09:38:25;;;;;;;8.13;1.42;;;10.90;84.60;;;;;;5011517;28;20038;-66
2022/04/08 09:40:51;;;;;;;9.95;2.20;;;11.00;84.50;;;;;;5011928;28;20548;-66
2022/04/08 09:43:17;;;;;;;4.95;1.30;;;11.10;82.50;;;;;;5011122;28;20030;-66
2022/04/08 09:45:44;;;;;;;4.72;2.17;;;11.00;82.60;;;;;;5010457;28;20405;-66
2022/04/08 09:48:10;;;;;;;5.40;1.88;;;11.10;82.70;;;;;;5012347;28;20030;-66
2022/04/08 09:50:37;;;;;;;7.35;1.88;;;11.20;82.60;;;;;;5011774;28;20072;-66
2022/04/08 09:53:03;;;;;;;5.47;1.50;;;11.20;82.00;;;;;;5010633;28;20022;-66
2022/04/08 09:55:29;;;;;;;3.42;1.40;;;11.30;81.10;;;;;;5011459;28;20159;-66
2022/04/08 09:58:05;;;;;;;4.80;1.30;;;11.30;79.60;;;;;;5011247;28;20105;-67
2022/04/08 10:00:32;;;;;;;5.95;1.80;;;11.30;79.80;;;;;;5024136;28;20603;-67
2022/04/08 10:03:01;;;;;;;7.07;1.52;;;11.30;79.00;;;;;;5015442;28;20091;-67
2022/04/08 10:05:27;;;;;;;4.15;1.50;;;11.30;78.60;;;;;;5011375;28;20038;-67
2022/04/08 10:07:55;;;;;;;7.38;1.42;;;11.30;79.10;;;;;;5011113;28;20388;-67
2022/04/08 10:10:33;;;;;;;4.55;1.15;;;11.40;78.70;;;;;;5011093;28;20125;-67
2022/04/08 10:13:30;;;;;;;4.30;1.60;;;11.40;78.50;;;;;;5016119;28;20057;-66
2022/04/08 10:16:17;;;;;;;5.00;1.20;;;11.40;78.10;;;;;;5005440;28;20030;-66
2022/04/08 10:18:45;;;;;;;3.75;1.60;;;11.50;78.30;;;;;;5011589;28;20037;-67
2022/04/08 10:21:11;;;;;;;5.53;1.67;;;11.60;77.90;;;;;;5011037;28;20030;-66
2022/04/08 10:23:57;;;;;;;4.00;1.40;;;11.70;76.10;;;;;;5011929;28;20499;-65
2022/04/08 10:26:24;;;;;;;6.05;2.05;;;11.60;76.30;;;;;;5011019;28;20034;-66
2022/04/08 10:28:51;;;;;;;5.60;1.58;;;11.60;76.10;;;;;;5010113;28;20026;-66
2022/04/08 10:31:18;;;;;;;7.30;1.50;;;11.60;76.70;;;;;;5011305;28;20136;-66
2022/04/08 10:33:55;;;;;;;4.47;1.50;;;11.60;76.50;;;;;;5010735;28;20113;-66
2022/04/08 10:36:36;;;;;;;4.30;1.33;;;11.70;76.10;;;;;;5011493;28;20163;-67
2022/04/08 10:39:16;;;;;;;3.65;1.65;;;11.80;76.10;;;;;;5018438;28;20033;-67
2022/04/08 10:41:46;;;;;;;4.10;1.60;;;11.80;75.10;;;;;;5015152;28;20113;-66
2022/04/08 10:44:11;;;;;;;2.75;1.27;;;11.80;75.00;;;;;;5015128;28;20064;-66
2022/04/08 10:46:51;;;;;;;2.42;1.17;;;11.90;74.50;;;;;;5033293;28;20021;-66
2022/04/08 10:49:17;;;;;;;4.22;1.58;;;11.90;73.80;;;;;;5014658;28;20033;-66
2022/04/08 10:51:45;;;;;;;3.67;1.30;;;12.00;73.90;;;;;;5018533;28;20067;-66
2022/04/08 10:54:11;;;;;;;4.00;1.27;;;12.00;73.00;;;;;;5028488;28;20029;-66
2022/04/08 10:56:37;;;;;;;3.33;1.20;;;12.10;72.90;;;;;;5014741;28;20055;-66
2022/04/08 10:59:03;;;;;;;7.40;2.40;;;12.10;72.50;;;;;;5021281;28;20069;-66
2022/04/08 11:01:34;;;;;;;5.93;1.70;;;12.20;72.20;;;;;;5034050;28;20358;-66
2022/04/08 11:04:02;;;;;;;3.65;1.58;;;12.20;71.30;;;;;;5014816;28;20053;-66
2022/04/08 11:06:36;;;;;;;5.03;1.55;;;12.20;70.80;;;;;;5014083;28;20034;-66
2022/04/08 11:09:09;;;;;;;4.40;1.40;;;12.20;71.60;;;;;;5033969;28;20477;-66
2022/04/08 11:11:37;;;;;;;4.35;1.10;;;12.20;70.70;;;;;;5033440;28;20261;-67
2022/04/08 11:14:04;;;;;;;3.25;1.42;;;12.20;72.40;;;;;;5033922;28;20036;-66
2022/04/08 11:16:35;;;;;;;4.20;1.48;;;12.20;72.70;;;;;;5033639;28;20372;-66
2022/04/08 11:19:03;;;;;;;6.53;1.40;;;12.30;73.60;;;;;;5014312;28;20045;-66
2022/04/08 11:21:29;;;;;;;5.32;1.35;;;12.30;73.00;;;;;;5013686;28;20099;-66
2022/04/08 11:23:58;;;;;;;4.85;1.60;;;12.30;73.00;;;;;;5013470;28;20034;-67
2022/04/08 11:26:24;;;;;;;4.82;1.30;;;12.40;73.10;;;;;;5014647;28;20393;-67
2022/04/08 11:28:49;;;;;;;5.03;1.27;;;12.40;72.70;;;;;;5013907;28;20036;-66
2022/04/08 11:31:18;;;;;;;3.22;1.35;;;12.50;72.70;;;;;;5014432;28;20022;-67
2022/04/08 11:33:44;;;;;;;3.67;1.40;;;12.50;72.90;;;;;;5026912;28;20038;-66
2022/04/08 11:36:09;;;;;;;3.85;1.40;;;12.60;73.00;;;;;;5013844;28;20022;-66
2022/04/08 11:38:35;;;;;;;3.80;1.38;;;12.60;72.50;;;;;;5013683;28;20381;-66
2022/04/08 11:41:02;;;;;;;4.35;1.33;;;12.70;72.50;;;;;;5014040;28;20113;-67
2022/04/08 11:43:28;;;;;;;3.67;1.63;;;12.80;72.60;;;;;;5014263;28;20053;-67
2022/04/08 11:45:53;;;;;;;3.17;1.45;;;12.90;72.30;;;;;;5013769;28;20042;-67
2022/04/08 11:48:23;;;;;;;5.22;1.90;;;12.90;71.60;;;;;;5013300;28;20153;-66
2022/04/08 11:50:49;;;;;;;3.63;1.40;;;13.00;71.20;;;;;;5012338;28;20041;-66
2022/04/08 11:53:22;;;;;;;4.95;1.40;;;13.00;70.90;;;;;;5017508;28;20144;-66
2022/04/08 11:55:53;;;;;;;3.17;1.25;;;13.00;70.40;;;;;;5026617;28;20377;-66
2022/04/08 11:58:19;;;;;;;2.88;1.40;;;13.00;70.30;;;;;;5012506;28;20089;-66
2022/04/08 12:00:48;;;;;;;3.47;1.40;;;12.90;69.80;;;;;;5016268;28;20022;-67
2022/04/08 12:03:21;;;;;;;3.58;1.48;;;12.90;69.30;;;;;;5015898;28;20057;-66
2022/04/08 12:05:48;;;;;;;4.90;1.52;;;12.80;69.00;;;;;;5013298;28;20049;-67
2022/04/08 12:08:15;;;;;;;6.00;1.80;;;12.70;69.20;;;;;;5016053;28;20560;-67
2022/04/08 12:10:40;;;;;;;1.63;1.15;;;12.50;69.00;;;;;;5013876;28;20034;-67
2022/04/08 12:13:33;;;;;;;2.42;1.35;;;12.50;68.70;;;;;;5018551;28;20045;-66
2022/04/08 12:15:59;;;;;;;5.22;1.83;;;12.40;69.50;;;;;;5013354;28;20164;-70
2022/04/08 12:18:27;;;;;;;4.38;1.73;;;12.50;69.20;;;;;;5021678;28;20108;-69
2022/04/08 12:20:57;;;;;;;3.88;2.45;;;12.50;70.30;;;;;;5028642;28;20041;-69
2022/04/08 12:23:24;;;;;;;6.10;2.05;;;12.50;69.40;;;;;;5017199;28;20117;-68
2022/04/08 12:25:55;;;;;;;6.72;1.88;;;12.60;69.30;;;;;;5021236;28;20033;-68
2022/04/08 12:28:38;;;;;;;4.97;1.98;;;12.70;69.40;;;;;;5015814;28;20101;-68
2022/04/08 12:31:15;;;;;;;4.45;1.65;;;12.70;69.20;;;;;;5012565;28;20053;-68
2022/04/08 12:33:42;;;;;;;4.55;1.55;;;12.70;69.20;;;;;;5015156;28;20025;-69
2022/04/08 12:36:11;;;;;;;3.40;1.70;;;12.70;69.40;;;;;;5019211;28;20034;-69
2022/04/08 12:38:42;;;;;;;4.07;1.50;;;12.80;69.40;;;;;;5016194;28;20022;-68
2022/04/08 12:41:09;;;;;;;4.00;1.50;;;12.90;69.80;;;;;;5012292;28;20440;-68
2022/04/08 12:43:35;;;;;;;3.28;1.67;;;12.90;69.60;;;;;;5022554;28;20025;-68
2022/04/08 12:46:01;;;;;;;5.45;2.08;;;13.00;69.40;;;;;;5021156;28;20507;-69
2022/04/08 12:48:27;;;;;;;5.05;2.40;;;13.00;68.90;;;;;;5011318;28;20050;-69
2022/04/08 12:50:53;;;;;;;5.82;2.03;;;13.10;68.30;;;;;;5020916;28;20075;-69